sensor_id;sensor_type;location;lat;lon;timestamp;P1;durP1;ratioP1;P2;durP2;ratioP2
10582;SDS011;33679;51.218;6.786;2023-11-21T00:01:27;5.00;;;3.60;;
10582;SDS011;33679;51.218;6.786;2023-11-21T00:03:59;5.40;;;3.90;;
10582;SDS011;33679;51.218;6.786;2023-11-21T00:06:32;7.70;;;3.97;;
10582;SDS011;33679;51.218;6.786;2023-11-21T00:09:05;6.10;;;3.87;;
10582;SDS011;33679;51.218;6.786;2023-11-21T00:11:40;6.90;;;3.47;;
10582;SDS011;33679;51.218;6.786;2023-11-21T00:14:14;8.37;;;4.40;;
10582;SDS011;33679;51.218;6.786;2023-11-21T00:16:46;8.37;;;3.73;;
10582;SDS011;33679;51.218;6.786;2023-11-21T00:19:18;7.80;;;3.90;;
10582;SDS011;33679;51.218;6.786;2023-11-21T00:21:50;8.03;;;4.20;;
10582;SDS011;33679;51.218;6.786;2023-11-21T00:24:23;8.80;;;3.97;;
10582;SDS011;33679;51.218;6.786;2023-11-21T00:26:59;8.33;;;3.40;;
10582;SDS011;33679;51.218;6.786;2023-11-21T00:29:32;6.50;;;3.70;;
10582;SDS011;33679;51.218;6.786;2023-11-21T00:32:06;12.60;;;4.80;;
10582;SDS011;33679;51.218;6.786;2023-11-21T00:34:41;7.80;;;4.60;;
10582;SDS011;33679;51.218;6.786;2023-11-21T00:37:15;8.63;;;4.87;;
10582;SDS011;33679;51.218;6.786;2023-11-21T00:39:47;7.93;;;5.20;;
10582;SDS011;33679;51.218;6.786;2023-11-21T00:42:22;12.90;;;5.20;;
10582;SDS011;33679;51.218;6.786;2023-11-21T00:44:55;7.97;;;5.00;;
10582;SDS011;33679;51.218;6.786;2023-11-21T00:47:28;9.87;;;5.40;;
10582;SDS011;33679;51.218;6.786;2023-11-21T00:50:01;7.17;;;4.77;;
10582;SDS011;33679;51.218;6.786;2023-11-21T00:52:34;8.50;;;4.97;;
10582;SDS011;33679;51.218;6.786;2023-11-21T00:55:07;8.00;;;4.93;;
10582;SDS011;33679;51.218;6.786;2023-11-21T00:57:42;11.80;;;5.47;;
10582;SDS011;33679;51.218;6.786;2023-11-21T01:00:14;8.23;;;4.50;;
10582;SDS011;33679;51.218;6.786;2023-11-21T01:02:48;10.63;;;4.73;;
10582;SDS011;33679;51.218;6.786;2023-11-21T01:05:21;10.90;;;4.80;;
10582;SDS011;33679;51.218;6.786;2023-11-21T01:07:53;8.93;;;5.00;;
10582;SDS011;33679;51.218;6.786;2023-11-21T01:10:25;11.10;;;4.93;;
10582;SDS011;33679;51.218;6.786;2023-11-21T01:12:59;12.00;;;5.20;;
10582;SDS011;33679;51.218;6.786;2023-11-21T01:15:33;9.10;;;4.90;;
10582;SDS011;33679;51.218;6.786;2023-11-21T01:18:05;6.87;;;4.23;;
10582;SDS011;33679;51.218;6.786;2023-11-21T01:20:41;9.90;;;5.53;;
10582;SDS011;33679;51.218;6.786;2023-11-21T01:23:14;9.67;;;5.30;;
10582;SDS011;33679;51.218;6.786;2023-11-21T01:25:47;17.83;;;6.07;;
10582;SDS011;33679;51.218;6.786;2023-11-21T01:28:21;11.30;;;5.70;;
10582;SDS011;33679;51.218;6.786;2023-11-21T01:30:53;9.63;;;6.13;;
10582;SDS011;33679;51.218;6.786;2023-11-21T01:33:26;10.03;;;5.20;;
10582;SDS011;33679;51.218;6.786;2023-11-21T01:35:59;8.23;;;6.13;;
10582;SDS011;33679;51.218;6.786;2023-11-21T01:38:31;8.80;;;4.97;;
10582;SDS011;33679;51.218;6.786;2023-11-21T01:41:05;12.13;;;5.40;;
10582;SDS011;33679;51.218;6.786;2023-11-21T01:43:40;8.13;;;5.17;;
10582;SDS011;33679;51.218;6.786;2023-11-21T01:46:15;11.30;;;5.80;;
10582;SDS011;33679;51.218;6.786;2023-11-21T01:48:48;14.93;;;5.83;;
10582;SDS011;33679;51.218;6.786;2023-11-21T01:51:23;8.97;;;4.90;;
10582;SDS011;33679;51.218;6.786;2023-11-21T01:53:56;10.53;;;4.77;;
10582;SDS011;33679;51.218;6.786;2023-11-21T01:56:29;11.20;;;5.50;;
10582;SDS011;33679;51.218;6.786;2023-11-21T01:59:04;11.80;;;5.80;;
10582;SDS011;33679;51.218;6.786;2023-11-21T02:01:37;12.00;;;5.80;;
10582;SDS011;33679;51.218;6.786;2023-11-21T02:04:09;11.93;;;5.87;;
10582;SDS011;33679;51.218;6.786;2023-11-21T02:06:42;9.43;;;5.30;;
10582;SDS011;33679;51.218;6.786;2023-11-21T02:09:15;22.30;;;7.10;;
10582;SDS011;33679;51.218;6.786;2023-11-21T02:11:47;10.53;;;6.20;;
10582;SDS011;33679;51.218;6.786;2023-11-21T02:14:21;9.57;;;5.57;;
10582;SDS011;33679;51.218;6.786;2023-11-21T02:16:55;10.30;;;5.90;;
10582;SDS011;33679;51.218;6.786;2023-11-21T02:19:31;9.67;;;5.57;;
10582;SDS011;33679;51.218;6.786;2023-11-21T02:22:06;8.10;;;5.60;;
10582;SDS011;33679;51.218;6.786;2023-11-21T02:24:41;10.77;;;5.70;;
10582;SDS011;33679;51.218;6.786;2023-11-21T02:27:14;10.80;;;5.83;;
10582;SDS011;33679;51.218;6.786;2023-11-21T02:29:52;10.43;;;5.80;;
10582;SDS011;33679;51.218;6.786;2023-11-21T02:32:25;7.60;;;4.87;;
10582;SDS011;33679;51.218;6.786;2023-11-21T02:34:57;11.03;;;5.63;;
10582;SDS011;33679;51.218;6.786;2023-11-21T02:37:31;10.50;;;6.27;;
10582;SDS011;33679;51.218;6.786;2023-11-21T02:40:06;12.47;;;6.23;;
10582;SDS011;33679;51.218;6.786;2023-11-21T02:42:40;11.17;;;6.67;;
10582;SDS011;33679;51.218;6.786;2023-11-21T02:45:13;14.83;;;6.17;;
10582;SDS011;33679;51.218;6.786;2023-11-21T02:47:47;10.23;;;6.07;;
10582;SDS011;33679;51.218;6.786;2023-11-21T02:50:20;7.30;;;5.50;;
10582;SDS011;33679;51.218;6.786;2023-11-21T02:52:53;9.73;;;5.37;;
10582;SDS011;33679;51.218;6.786;2023-11-21T02:55:29;10.90;;;6.47;;
10582;SDS011;33679;51.218;6.786;2023-11-21T02:58:05;9.60;;;5.50;;
10582;SDS011;33679;51.218;6.786;2023-11-21T03:00:37;8.40;;;5.30;;
10582;SDS011;33679;51.218;6.786;2023-11-21T03:03:10;8.40;;;5.33;;
10582;SDS011;33679;51.218;6.786;2023-11-21T03:05:46;9.50;;;4.80;;
10582;SDS011;33679;51.218;6.786;2023-11-21T03:08:24;9.53;;;5.37;;
10582;SDS011;33679;51.218;6.786;2023-11-21T03:10:57;15.03;;;5.70;;
10582;SDS011;33679;51.218;6.786;2023-11-21T03:13:30;10.17;;;6.20;;
10582;SDS011;33679;51.218;6.786;2023-11-21T03:16:02;11.80;;;5.97;;
10582;SDS011;33679;51.218;6.786;2023-11-21T03:18:35;11.33;;;5.70;;
10582;SDS011;33679;51.218;6.786;2023-11-21T03:21:08;8.70;;;5.80;;
10582;SDS011;33679;51.218;6.786;2023-11-21T03:23:41;10.87;;;5.90;;
10582;SDS011;33679;51.218;6.786;2023-11-21T03:26:15;6.70;;;5.23;;
10582;SDS011;33679;51.218;6.786;2023-11-21T03:28:48;10.00;;;5.80;;
10582;SDS011;33679;51.218;6.786;2023-11-21T03:31:24;11.30;;;6.10;;
10582;SDS011;33679;51.218;6.786;2023-11-21T03:33:57;11.90;;;5.87;;
10582;SDS011;33679;51.218;6.786;2023-11-21T03:36:29;9.73;;;6.33;;
10582;SDS011;33679;51.218;6.786;2023-11-21T03:39:01;10.77;;;6.17;;
10582;SDS011;33679;51.218;6.786;2023-11-21T03:41:34;9.70;;;6.47;;
10582;SDS011;33679;51.218;6.786;2023-11-21T03:44:07;12.57;;;6.70;;
10582;SDS011;33679;51.218;6.786;2023-11-21T03:46:41;10.80;;;6.47;;
10582;SDS011;33679;51.218;6.786;2023-11-21T03:49:15;15.40;;;7.50;;
10582;SDS011;33679;51.218;6.786;2023-11-21T03:51:48;11.47;;;6.80;;
10582;SDS011;33679;51.218;6.786;2023-11-21T03:54:20;13.60;;;7.50;;
10582;SDS011;33679;51.218;6.786;2023-11-21T03:56:54;13.20;;;7.27;;
10582;SDS011;33679;51.218;6.786;2023-11-21T03:59:26;11.40;;;7.23;;
10582;SDS011;33679;51.218;6.786;2023-11-21T04:01:59;11.60;;;6.80;;
10582;SDS011;33679;51.218;6.786;2023-11-21T04:04:31;11.60;;;7.03;;
10582;SDS011;33679;51.218;6.786;2023-11-21T04:07:03;11.70;;;7.23;;
10582;SDS011;33679;51.218;6.786;2023-11-21T04:09:36;12.87;;;7.43;;
10582;SDS011;33679;51.218;6.786;2023-11-21T04:12:10;15.63;;;7.27;;
10582;SDS011;33679;51.218;6.786;2023-11-21T04:14:42;11.70;;;7.60;;
10582;SDS011;33679;51.218;6.786;2023-11-21T04:17:17;12.13;;;7.10;;
10582;SDS011;33679;51.218;6.786;2023-11-21T04:19:49;15.70;;;7.23;;
10582;SDS011;33679;51.218;6.786;2023-11-21T04:22:22;16.63;;;8.53;;
10582;SDS011;33679;51.218;6.786;2023-11-21T04:24:54;17.83;;;8.73;;
10582;SDS011;33679;51.218;6.786;2023-11-21T04:27:28;11.07;;;6.50;;
10582;SDS011;33679;51.218;6.786;2023-11-21T04:30:00;15.23;;;7.00;;
10582;SDS011;33679;51.218;6.786;2023-11-21T04:32:33;13.70;;;6.67;;
10582;SDS011;33679;51.218;6.786;2023-11-21T04:35:06;17.40;;;6.83;;
10582;SDS011;33679;51.218;6.786;2023-11-21T04:37:39;17.53;;;7.70;;
10582;SDS011;33679;51.218;6.786;2023-11-21T04:40:11;10.10;;;6.10;;
10582;SDS011;33679;51.218;6.786;2023-11-21T04:42:45;15.37;;;7.50;;
10582;SDS011;33679;51.218;6.786;2023-11-21T04:45:17;11.23;;;6.50;;
10582;SDS011;33679;51.218;6.786;2023-11-21T04:47:49;12.70;;;7.10;;
10582;SDS011;33679;51.218;6.786;2023-11-21T04:50:23;12.23;;;6.73;;
10582;SDS011;33679;51.218;6.786;2023-11-21T04:52:56;18.47;;;7.87;;
10582;SDS011;33679;51.218;6.786;2023-11-21T04:55:28;19.07;;;7.93;;
10582;SDS011;33679;51.218;6.786;2023-11-21T04:58:02;12.47;;;6.40;;
10582;SDS011;33679;51.218;6.786;2023-11-21T05:00:35;17.10;;;7.00;;
10582;SDS011;33679;51.218;6.786;2023-11-21T05:03:07;18.40;;;7.90;;
10582;SDS011;33679;51.218;6.786;2023-11-21T05:05:41;15.83;;;7.60;;
10582;SDS011;33679;51.218;6.786;2023-11-21T05:08:13;15.30;;;7.37;;
10582;SDS011;33679;51.218;6.786;2023-11-21T05:10:45;11.20;;;6.97;;
10582;SDS011;33679;51.218;6.786;2023-11-21T05:13:19;11.27;;;6.90;;
10582;SDS011;33679;51.218;6.786;2023-11-21T05:15:52;13.30;;;6.63;;
10582;SDS011;33679;51.218;6.786;2023-11-21T05:18:24;16.63;;;8.47;;
10582;SDS011;33679;51.218;6.786;2023-11-21T05:20:57;13.83;;;6.93;;
10582;SDS011;33679;51.218;6.786;2023-11-21T05:23:29;20.80;;;7.93;;
10582;SDS011;33679;51.218;6.786;2023-11-21T05:26:02;13.87;;;7.37;;
10582;SDS011;33679;51.218;6.786;2023-11-21T05:28:35;12.73;;;8.20;;
10582;SDS011;33679;51.218;6.786;2023-11-21T05:31:07;22.10;;;8.20;;
10582;SDS011;33679;51.218;6.786;2023-11-21T05:33:41;16.63;;;7.97;;
10582;SDS011;33679;51.218;6.786;2023-11-21T05:36:13;19.57;;;9.70;;
10582;SDS011;33679;51.218;6.786;2023-11-21T05:38:46;17.70;;;8.40;;
10582;SDS011;33679;51.218;6.786;2023-11-21T05:41:18;18.90;;;8.97;;
10582;SDS011;33679;51.218;6.786;2023-11-21T05:43:51;20.17;;;8.33;;
10582;SDS011;33679;51.218;6.786;2023-11-21T05:46:24;16.87;;;8.27;;
10582;SDS011;33679;51.218;6.786;2023-11-21T05:48:57;19.00;;;9.20;;
10582;SDS011;33679;51.218;6.786;2023-11-21T05:51:29;16.30;;;8.27;;
10582;SDS011;33679;51.218;6.786;2023-11-21T05:54:01;16.13;;;8.13;;
10582;SDS011;33679;51.218;6.786;2023-11-21T05:56:34;17.40;;;7.70;;
10582;SDS011;33679;51.218;6.786;2023-11-21T05:59:08;18.37;;;9.77;;
10582;SDS011;33679;51.218;6.786;2023-11-21T06:01:41;14.60;;;8.60;;
10582;SDS011;33679;51.218;6.786;2023-11-21T06:04:13;11.43;;;7.40;;
10582;SDS011;33679;51.218;6.786;2023-11-21T06:06:45;20.90;;;8.70;;
10582;SDS011;33679;51.218;6.786;2023-11-21T06:09:18;19.60;;;8.17;;
10582;SDS011;33679;51.218;6.786;2023-11-21T06:11:50;15.40;;;9.00;;
10582;SDS011;33679;51.218;6.786;2023-11-21T06:14:24;18.20;;;9.17;;
10582;SDS011;33679;51.218;6.786;2023-11-21T06:16:56;15.57;;;7.93;;
10582;SDS011;33679;51.218;6.786;2023-11-21T06:19:29;18.20;;;8.73;;
10582;SDS011;33679;51.218;6.786;2023-11-21T06:22:01;17.90;;;8.83;;
10582;SDS011;33679;51.218;6.786;2023-11-21T06:24:34;20.67;;;9.83;;
10582;SDS011;33679;51.218;6.786;2023-11-21T06:27:06;18.20;;;9.10;;
10582;SDS011;33679;51.218;6.786;2023-11-21T06:29:43;21.93;;;9.53;;
10582;SDS011;33679;51.218;6.786;2023-11-21T06:32:15;18.00;;;8.57;;
10582;SDS011;33679;51.218;6.786;2023-11-21T06:34:47;15.77;;;8.37;;
10582;SDS011;33679;51.218;6.786;2023-11-21T06:37:20;19.47;;;8.40;;
10582;SDS011;33679;51.218;6.786;2023-11-21T06:39:53;16.77;;;8.87;;
10582;SDS011;33679;51.218;6.786;2023-11-21T06:42:27;18.77;;;9.47;;
10582;SDS011;33679;51.218;6.786;2023-11-21T06:45:01;17.43;;;9.13;;
10582;SDS011;33679;51.218;6.786;2023-11-21T06:47:34;20.20;;;9.73;;
10582;SDS011;33679;51.218;6.786;2023-11-21T06:50:08;21.43;;;9.43;;
10582;SDS011;33679;51.218;6.786;2023-11-21T06:52:41;22.53;;;10.23;;
10582;SDS011;33679;51.218;6.786;2023-11-21T06:55:14;19.90;;;9.30;;
10582;SDS011;33679;51.218;6.786;2023-11-21T06:57:47;18.47;;;9.53;;
10582;SDS011;33679;51.218;6.786;2023-11-21T07:00:21;22.60;;;10.43;;
10582;SDS011;33679;51.218;6.786;2023-11-21T07:02:53;24.00;;;10.80;;
10582;SDS011;33679;51.218;6.786;2023-11-21T07:05:29;27.53;;;10.60;;
10582;SDS011;33679;51.218;6.786;2023-11-21T07:08:01;23.93;;;10.13;;
10582;SDS011;33679;51.218;6.786;2023-11-21T07:10:35;17.80;;;10.17;;
10582;SDS011;33679;51.218;6.786;2023-11-21T07:13:08;23.30;;;10.00;;
10582;SDS011;33679;51.218;6.786;2023-11-21T07:15:44;33.10;;;11.20;;
10582;SDS011;33679;51.218;6.786;2023-11-21T07:18:16;18.50;;;8.97;;
10582;SDS011;33679;51.218;6.786;2023-11-21T07:20:48;21.83;;;9.60;;
10582;SDS011;33679;51.218;6.786;2023-11-21T07:23:22;26.47;;;9.90;;
10582;SDS011;33679;51.218;6.786;2023-11-21T07:25:56;20.90;;;9.37;;
10582;SDS011;33679;51.218;6.786;2023-11-21T07:28:28;18.63;;;8.90;;
10582;SDS011;33679;51.218;6.786;2023-11-21T07:31:05;21.63;;;9.60;;
10582;SDS011;33679;51.218;6.786;2023-11-21T07:33:37;20.27;;;9.67;;
10582;SDS011;33679;51.218;6.786;2023-11-21T07:36:10;30.60;;;11.03;;
10582;SDS011;33679;51.218;6.786;2023-11-21T07:38:42;26.70;;;11.23;;
10582;SDS011;33679;51.218;6.786;2023-11-21T07:41:15;28.73;;;11.77;;
10582;SDS011;33679;51.218;6.786;2023-11-21T07:43:48;28.90;;;10.40;;
10582;SDS011;33679;51.218;6.786;2023-11-21T07:46:22;24.20;;;12.00;;
10582;SDS011;33679;51.218;6.786;2023-11-21T07:48:56;33.47;;;15.00;;
10582;SDS011;33679;51.218;6.786;2023-11-21T07:51:29;34.10;;;14.63;;
10582;SDS011;33679;51.218;6.786;2023-11-21T07:54:02;34.10;;;14.37;;
10582;SDS011;33679;51.218;6.786;2023-11-21T07:56:37;32.20;;;14.60;;
10582;SDS011;33679;51.218;6.786;2023-11-21T07:59:12;29.43;;;13.27;;
10582;SDS011;33679;51.218;6.786;2023-11-21T08:01:46;30.53;;;13.57;;
10582;SDS011;33679;51.218;6.786;2023-11-21T08:04:18;30.10;;;13.10;;
10582;SDS011;33679;51.218;6.786;2023-11-21T08:06:50;22.80;;;12.83;;
10582;SDS011;33679;51.218;6.786;2023-11-21T08:09:22;28.87;;;13.43;;
10582;SDS011;33679;51.218;6.786;2023-11-21T08:11:56;33.90;;;13.63;;
10582;SDS011;33679;51.218;6.786;2023-11-21T08:14:28;30.97;;;12.80;;
10582;SDS011;33679;51.218;6.786;2023-11-21T08:17:04;31.03;;;13.87;;
10582;SDS011;33679;51.218;6.786;2023-11-21T08:19:36;27.40;;;12.47;;
10582;SDS011;33679;51.218;6.786;2023-11-21T08:22:09;32.20;;;13.67;;
10582;SDS011;33679;51.218;6.786;2023-11-21T08:24:41;38.63;;;18.30;;
10582;SDS011;33679;51.218;6.786;2023-11-21T08:27:14;33.20;;;15.33;;
10582;SDS011;33679;51.218;6.786;2023-11-21T08:29:49;33.27;;;13.93;;
10582;SDS011;33679;51.218;6.786;2023-11-21T08:32:24;34.27;;;14.00;;
10582;SDS011;33679;51.218;6.786;2023-11-21T08:34:56;31.43;;;12.97;;
10582;SDS011;33679;51.218;6.786;2023-11-21T08:37:28;29.83;;;11.70;;
10582;SDS011;33679;51.218;6.786;2023-11-21T08:40:03;28.60;;;13.00;;
10582;SDS011;33679;51.218;6.786;2023-11-21T08:42:39;33.90;;;15.40;;
10582;SDS011;33679;51.218;6.786;2023-11-21T08:45:11;26.53;;;13.40;;
10582;SDS011;33679;51.218;6.786;2023-11-21T08:47:45;31.93;;;13.83;;
10582;SDS011;33679;51.218;6.786;2023-11-21T08:50:18;25.27;;;12.27;;
10582;SDS011;33679;51.218;6.786;2023-11-21T08:52:50;31.77;;;13.90;;
10582;SDS011;33679;51.218;6.786;2023-11-21T08:55:22;24.93;;;11.67;;
10582;SDS011;33679;51.218;6.786;2023-11-21T08:57:55;24.37;;;11.50;;
10582;SDS011;33679;51.218;6.786;2023-11-21T09:00:29;31.27;;;12.47;;
10582;SDS011;33679;51.218;6.786;2023-11-21T09:03:03;35.67;;;15.50;;
10582;SDS011;33679;51.218;6.786;2023-11-21T09:05:41;40.20;;;18.17;;
10582;SDS011;33679;51.218;6.786;2023-11-21T09:08:13;32.33;;;13.30;;
10582;SDS011;33679;51.218;6.786;2023-11-21T09:10:45;21.60;;;10.83;;
10582;SDS011;33679;51.218;6.786;2023-11-21T09:13:17;28.17;;;11.60;;
10582;SDS011;33679;51.218;6.786;2023-11-21T09:15:50;22.20;;;11.10;;
10582;SDS011;33679;51.218;6.786;2023-11-21T09:18:24;25.70;;;12.30;;
10582;SDS011;33679;51.218;6.786;2023-11-21T09:20:56;23.27;;;11.53;;
10582;SDS011;33679;51.218;6.786;2023-11-21T09:23:28;32.20;;;12.93;;
10582;SDS011;33679;51.218;6.786;2023-11-21T09:26:00;30.10;;;12.43;;
10582;SDS011;33679;51.218;6.786;2023-11-21T09:28:33;30.20;;;13.43;;
10582;SDS011;33679;51.218;6.786;2023-11-21T09:31:07;84.40;;;39.40;;
10582;SDS011;33679;51.218;6.786;2023-11-21T09:33:43;33.83;;;16.13;;
10582;SDS011;33679;51.218;6.786;2023-11-21T09:36:16;34.60;;;12.33;;
10582;SDS011;33679;51.218;6.786;2023-11-21T09:38:48;27.17;;;13.00;;
10582;SDS011;33679;51.218;6.786;2023-11-21T09:41:23;26.40;;;12.23;;
10582;SDS011;33679;51.218;6.786;2023-11-21T09:44:05;35.23;;;15.97;;
10582;SDS011;33679;51.218;6.786;2023-11-21T09:46:48;31.73;;;14.10;;
10582;SDS011;33679;51.218;6.786;2023-11-21T09:49:22;32.33;;;13.60;;
10582;SDS011;33679;51.218;6.786;2023-11-21T09:51:56;32.00;;;12.47;;
10582;SDS011;33679;51.218;6.786;2023-11-21T09:54:32;23.97;;;11.57;;
10582;SDS011;33679;51.218;6.786;2023-11-21T09:57:06;27.97;;;11.07;;
10582;SDS011;33679;51.218;6.786;2023-11-21T09:59:40;32.10;;;13.10;;
10582;SDS011;33679;51.218;6.786;2023-11-21T10:02:15;26.10;;;11.50;;
10582;SDS011;33679;51.218;6.786;2023-11-21T10:04:54;32.17;;;14.10;;
10582;SDS011;33679;51.218;6.786;2023-11-21T10:07:27;31.80;;;12.50;;
10582;SDS011;33679;51.218;6.786;2023-11-21T10:10:03;25.37;;;12.90;;
10582;SDS011;33679;51.218;6.786;2023-11-21T10:12:37;28.97;;;13.23;;
10582;SDS011;33679;51.218;6.786;2023-11-21T10:15:10;27.07;;;11.87;;
10582;SDS011;33679;51.218;6.786;2023-11-21T10:17:46;41.13;;;17.30;;
10582;SDS011;33679;51.218;6.786;2023-11-21T10:20:22;33.47;;;14.80;;
10582;SDS011;33679;51.218;6.786;2023-11-21T10:22:56;29.03;;;12.07;;
10582;SDS011;33679;51.218;6.786;2023-11-21T10:25:28;30.23;;;14.60;;
10582;SDS011;33679;51.218;6.786;2023-11-21T10:28:01;26.80;;;13.30;;
10582;SDS011;33679;51.218;6.786;2023-11-21T10:30:37;32.43;;;12.83;;
10582;SDS011;33679;51.218;6.786;2023-11-21T10:33:10;32.57;;;12.33;;
10582;SDS011;33679;51.218;6.786;2023-11-21T10:35:46;26.77;;;12.07;;
10582;SDS011;33679;51.218;6.786;2023-11-21T10:38:21;32.90;;;12.40;;
10582;SDS011;33679;51.218;6.786;2023-11-21T10:40:54;24.03;;;10.57;;
10582;SDS011;33679;51.218;6.786;2023-11-21T10:43:27;26.53;;;10.90;;
10582;SDS011;33679;51.218;6.786;2023-11-21T10:46:00;22.73;;;11.27;;
10582;SDS011;33679;51.218;6.786;2023-11-21T10:48:33;28.00;;;11.07;;
10582;SDS011;33679;51.218;6.786;2023-11-21T10:51:08;25.33;;;12.33;;
10582;SDS011;33679;51.218;6.786;2023-11-21T10:53:40;35.07;;;16.80;;
10582;SDS011;33679;51.218;6.786;2023-11-21T10:56:16;29.23;;;14.43;;
10582;SDS011;33679;51.218;6.786;2023-11-21T10:58:51;26.70;;;12.00;;
10582;SDS011;33679;51.218;6.786;2023-11-21T11:01:25;28.90;;;11.93;;
10582;SDS011;33679;51.218;6.786;2023-11-21T11:04:01;35.03;;;13.70;;
10582;SDS011;33679;51.218;6.786;2023-11-21T11:06:41;26.37;;;12.03;;
10582;SDS011;33679;51.218;6.786;2023-11-21T11:09:17;27.87;;;12.30;;
10582;SDS011;33679;51.218;6.786;2023-11-21T11:11:50;25.53;;;12.57;;
10582;SDS011;33679;51.218;6.786;2023-11-21T11:14:24;32.63;;;12.90;;
10582;SDS011;33679;51.218;6.786;2023-11-21T11:16:58;24.20;;;11.30;;
10582;SDS011;33679;51.218;6.786;2023-11-21T11:19:32;33.83;;;12.00;;
10582;SDS011;33679;51.218;6.786;2023-11-21T11:22:09;32.33;;;12.50;;
10582;SDS011;33679;51.218;6.786;2023-11-21T11:25:10;31.63;;;14.13;;
10582;SDS011;33679;51.218;6.786;2023-11-21T11:27:57;28.47;;;13.53;;
10582;SDS011;33679;51.218;6.786;2023-11-21T11:30:40;30.70;;;13.87;;
10582;SDS011;33679;51.218;6.786;2023-11-21T11:33:21;40.17;;;16.73;;
10582;SDS011;33679;51.218;6.786;2023-11-21T11:36:04;36.73;;;17.97;;
10582;SDS011;33679;51.218;6.786;2023-11-21T11:38:45;24.40;;;11.40;;
10582;SDS011;33679;51.218;6.786;2023-11-21T11:41:24;29.73;;;12.80;;
10582;SDS011;33679;51.218;6.786;2023-11-21T11:43:58;31.43;;;13.33;;
10582;SDS011;33679;51.218;6.786;2023-11-21T11:46:42;30.43;;;14.73;;
10582;SDS011;33679;51.218;6.786;2023-11-21T11:49:23;36.00;;;16.30;;
10582;SDS011;33679;51.218;6.786;2023-11-21T11:55:08;38.70;;;17.77;;
10582;SDS011;33679;51.218;6.786;2023-11-21T11:57:45;44.17;;;18.80;;
10582;SDS011;33679;51.218;6.786;2023-11-21T12:00:20;53.47;;;20.53;;
10582;SDS011;33679;51.218;6.786;2023-11-21T12:02:59;37.90;;;16.90;;
10582;SDS011;33679;51.218;6.786;2023-11-21T12:05:33;49.90;;;20.30;;
10582;SDS011;33679;51.218;6.786;2023-11-21T12:08:10;52.97;;;20.90;;
10582;SDS011;33679;51.218;6.786;2023-11-21T12:10:44;52.43;;;20.10;;
10582;SDS011;33679;51.218;6.786;2023-11-21T12:13:19;52.80;;;21.57;;
10582;SDS011;33679;51.218;6.786;2023-11-21T12:15:51;43.47;;;18.83;;
10582;SDS011;33679;51.218;6.786;2023-11-21T12:18:25;54.50;;;23.90;;
10582;SDS011;33679;51.218;6.786;2023-11-21T12:20:57;54.20;;;22.23;;
10582;SDS011;33679;51.218;6.786;2023-11-21T12:23:32;51.23;;;23.30;;
10582;SDS011;33679;51.218;6.786;2023-11-21T12:26:06;62.20;;;24.70;;
10582;SDS011;33679;51.218;6.786;2023-11-21T12:28:38;64.57;;;28.77;;
10582;SDS011;33679;51.218;6.786;2023-11-21T12:31:11;64.53;;;28.77;;
10582;SDS011;33679;51.218;6.786;2023-11-21T12:33:44;72.20;;;29.33;;
10582;SDS011;33679;51.218;6.786;2023-11-21T12:36:17;57.43;;;26.13;;
10582;SDS011;33679;51.218;6.786;2023-11-21T12:38:49;60.70;;;25.27;;
10582;SDS011;33679;51.218;6.786;2023-11-21T12:41:23;64.60;;;27.70;;
10582;SDS011;33679;51.218;6.786;2023-11-21T12:43:56;55.63;;;23.27;;
10582;SDS011;33679;51.218;6.786;2023-11-21T12:46:29;53.53;;;23.87;;
10582;SDS011;33679;51.218;6.786;2023-11-21T12:49:03;54.23;;;24.27;;
10582;SDS011;33679;51.218;6.786;2023-11-21T12:51:36;59.50;;;24.57;;
10582;SDS011;33679;51.218;6.786;2023-11-21T12:54:09;56.67;;;25.87;;
10582;SDS011;33679;51.218;6.786;2023-11-21T12:56:46;58.00;;;24.00;;
10582;SDS011;33679;51.218;6.786;2023-11-21T12:59:20;71.47;;;33.43;;
10582;SDS011;33679;51.218;6.786;2023-11-21T13:01:57;60.67;;;25.90;;
10582;SDS011;33679;51.218;6.786;2023-11-21T13:04:35;55.93;;;24.57;;
10582;SDS011;33679;51.218;6.786;2023-11-21T13:07:08;51.10;;;22.73;;
10582;SDS011;33679;51.218;6.786;2023-11-21T13:09:48;47.07;;;19.83;;
10582;SDS011;33679;51.218;6.786;2023-11-21T13:12:25;61.80;;;23.20;;
10582;SDS011;33679;51.218;6.786;2023-11-21T13:15:03;46.33;;;21.07;;
10582;SDS011;33679;51.218;6.786;2023-11-21T13:17:37;46.70;;;18.93;;
10582;SDS011;33679;51.218;6.786;2023-11-21T13:20:10;48.20;;;20.23;;
10582;SDS011;33679;51.218;6.786;2023-11-21T13:22:48;50.93;;;20.63;;
10582;SDS011;33679;51.218;6.786;2023-11-21T13:25:24;47.60;;;21.27;;
10582;SDS011;33679;51.218;6.786;2023-11-21T13:28:00;45.70;;;19.57;;
10582;SDS011;33679;51.218;6.786;2023-11-21T13:30:32;38.73;;;18.30;;
10582;SDS011;33679;51.218;6.786;2023-11-21T13:33:07;57.13;;;21.73;;
10582;SDS011;33679;51.218;6.786;2023-11-21T13:35:47;46.53;;;19.97;;
10582;SDS011;33679;51.218;6.786;2023-11-21T13:38:22;49.93;;;23.30;;
10582;SDS011;33679;51.218;6.786;2023-11-21T13:40:57;42.50;;;19.50;;
10582;SDS011;33679;51.218;6.786;2023-11-21T13:43:32;53.67;;;23.23;;
10582;SDS011;33679;51.218;6.786;2023-11-21T13:46:04;44.30;;;22.13;;
10582;SDS011;33679;51.218;6.786;2023-11-21T13:48:43;43.70;;;20.70;;
10582;SDS011;33679;51.218;6.786;2023-11-21T13:51:22;37.80;;;17.50;;
10582;SDS011;33679;51.218;6.786;2023-11-21T13:54:02;47.60;;;20.70;;
10582;SDS011;33679;51.218;6.786;2023-11-21T13:56:40;47.20;;;18.10;;
10582;SDS011;33679;51.218;6.786;2023-11-21T13:59:16;39.73;;;18.10;;
10582;SDS011;33679;51.218;6.786;2023-11-21T14:01:56;42.40;;;18.60;;
10582;SDS011;33679;51.218;6.786;2023-11-21T14:04:30;44.13;;;17.93;;
10582;SDS011;33679;51.218;6.786;2023-11-21T14:07:33;44.10;;;19.13;;
10582;SDS011;33679;51.218;6.786;2023-11-21T14:10:09;43.20;;;19.90;;
10582;SDS011;33679;51.218;6.786;2023-11-21T14:12:45;51.53;;;20.93;;
10582;SDS011;33679;51.218;6.786;2023-11-21T14:15:18;46.67;;;19.30;;
10582;SDS011;33679;51.218;6.786;2023-11-21T14:17:51;45.57;;;19.70;;
10582;SDS011;33679;51.218;6.786;2023-11-21T14:20:23;42.97;;;18.87;;
10582;SDS011;33679;51.218;6.786;2023-11-21T14:22:55;37.53;;;16.80;;
10582;SDS011;33679;51.218;6.786;2023-11-21T14:25:27;32.67;;;15.40;;
10582;SDS011;33679;51.218;6.786;2023-11-21T14:28:02;29.00;;;12.53;;
10582;SDS011;33679;51.218;6.786;2023-11-21T14:30:43;22.87;;;11.90;;
10582;SDS011;33679;51.218;6.786;2023-11-21T14:33:16;24.20;;;12.60;;
10582;SDS011;33679;51.218;6.786;2023-11-21T14:35:50;22.33;;;9.10;;
10582;SDS011;33679;51.218;6.786;2023-11-21T14:38:23;17.53;;;9.13;;
10582;SDS011;33679;51.218;6.786;2023-11-21T14:40:58;17.60;;;7.90;;
10582;SDS011;33679;51.218;6.786;2023-11-21T14:43:31;14.23;;;7.10;;
10582;SDS011;33679;51.218;6.786;2023-11-21T14:46:07;15.87;;;8.03;;
10582;SDS011;33679;51.218;6.786;2023-11-21T14:48:40;14.57;;;7.47;;
10582;SDS011;33679;51.218;6.786;2023-11-21T14:51:13;12.77;;;7.23;;
10582;SDS011;33679;51.218;6.786;2023-11-21T14:54:01;15.60;;;7.90;;
10582;SDS011;33679;51.218;6.786;2023-11-21T14:56:36;13.13;;;6.97;;
10582;SDS011;33679;51.218;6.786;2023-11-21T14:59:09;12.47;;;7.40;;
10582;SDS011;33679;51.218;6.786;2023-11-21T15:01:48;17.20;;;7.40;;
10582;SDS011;33679;51.218;6.786;2023-11-21T15:04:25;10.53;;;6.67;;
10582;SDS011;33679;51.218;6.786;2023-11-21T15:07:06;15.43;;;8.20;;
10582;SDS011;33679;51.218;6.786;2023-11-21T15:09:38;13.40;;;7.30;;
10582;SDS011;33679;51.218;6.786;2023-11-21T15:12:13;13.80;;;7.80;;
10582;SDS011;33679;51.218;6.786;2023-11-21T15:14:45;14.67;;;8.63;;